sensor_id;sensor_type;location;lat;lon;timestamp;P1;durP1;ratioP1;P2;durP2;ratioP2
7255;SDS011;3669;49.200;9.242;2022-07-23T00:00:10;7.30;;;6.70;;
7255;SDS011;3669;49.200;9.242;2022-07-23T00:02:37;6.97;;;6.35;;
7255;SDS011;3669;49.200;9.242;2022-07-23T00:05:04;7.57;;;6.88;;
7255;SDS011;3669;49.200;9.242;2022-07-23T00:07:31;7.60;;;6.80;;
7255;SDS011;3669;49.200;9.242;2022-07-23T00:09:59;7.68;;;6.97;;
7255;SDS011;3669;49.200;9.242;2022-07-23T00:12:26;7.13;;;6.47;;
7255;SDS011;3669;49.200;9.242;2022-07-23T00:14:53;6.95;;;6.25;;
7255;SDS011;3669;49.200;9.242;2022-07-23T00:17:20;7.35;;;6.65;;
7255;SDS011;3669;49.200;9.242;2022-07-23T00:19:47;7.20;;;6.60;;
7255;SDS011;3669;49.200;9.242;2022-07-23T00:22:14;7.25;;;6.65;;
7255;SDS011;3669;49.200;9.242;2022-07-23T00:24:41;6.90;;;6.40;;
7255;SDS011;3669;49.200;9.242;2022-07-23T00:27:08;7.22;;;6.57;;
7255;SDS011;3669;49.200;9.242;2022-07-23T00:29:35;7.25;;;6.55;;
7255;SDS011;3669;49.200;9.242;2022-07-23T00:32:02;7.32;;;6.72;;
7255;SDS011;3669;49.200;9.242;2022-07-23T00:34:29;7.55;;;6.95;;
7255;SDS011;3669;49.200;9.242;2022-07-23T00:36:57;7.38;;;6.88;;
7255;SDS011;3669;49.200;9.242;2022-07-23T00:39:24;7.13;;;6.63;;
7255;SDS011;3669;49.200;9.242;2022-07-23T00:41:51;7.13;;;6.53;;
7255;SDS011;3669;49.200;9.242;2022-07-23T00:44:22;7.85;;;7.25;;
7255;SDS011;3669;49.200;9.242;2022-07-23T00:46:51;7.20;;;6.55;;
7255;SDS011;3669;49.200;9.242;2022-07-23T00:49:24;7.15;;;6.60;;
7255;SDS011;3669;49.200;9.242;2022-07-23T00:51:51;7.22;;;6.63;;
7255;SDS011;3669;49.200;9.242;2022-07-23T00:54:19;6.80;;;6.30;;
7255;SDS011;3669;49.200;9.242;2022-07-23T00:56:46;6.72;;;6.22;;
7255;SDS011;3669;49.200;9.242;2022-07-23T00:59:13;7.43;;;6.82;;
7255;SDS011;3669;49.200;9.242;2022-07-23T01:01:41;6.88;;;6.32;;
7255;SDS011;3669;49.200;9.242;2022-07-23T01:04:10;7.05;;;6.55;;
7255;SDS011;3669;49.200;9.242;2022-07-23T01:06:37;7.05;;;6.55;;
7255;SDS011;3669;49.200;9.242;2022-07-23T01:09:05;12.20;;;11.40;;
7255;SDS011;3669;49.200;9.242;2022-07-23T01:11:36;19.83;;;18.65;;
7255;SDS011;3669;49.200;9.242;2022-07-23T01:14:10;19.33;;;18.27;;
7255;SDS011;3669;49.200;9.242;2022-07-23T01:16:38;6.68;;;6.13;;
7255;SDS011;3669;49.200;9.242;2022-07-23T01:19:05;7.65;;;7.05;;
7255;SDS011;3669;49.200;9.242;2022-07-23T01:21:36;22.50;;;21.25;;
7255;SDS011;3669;49.200;9.242;2022-07-23T01:24:03;22.77;;;21.30;;
7255;SDS011;3669;49.200;9.242;2022-07-23T01:26:30;19.55;;;18.50;;
7255;SDS011;3669;49.200;9.242;2022-07-23T01:28:57;23.20;;;21.92;;
7255;SDS011;3669;49.200;9.242;2022-07-23T01:31:24;25.08;;;23.58;;
7255;SDS011;3669;49.200;9.242;2022-07-23T01:33:51;17.80;;;16.60;;
7255;SDS011;3669;49.200;9.242;2022-07-23T01:36:18;15.63;;;14.63;;
7255;SDS011;3669;49.200;9.242;2022-07-23T01:38:45;10.82;;;10.07;;
7255;SDS011;3669;49.200;9.242;2022-07-23T01:41:12;6.72;;;6.22;;
7255;SDS011;3669;49.200;9.242;2022-07-23T01:43:39;6.38;;;5.88;;
7255;SDS011;3669;49.200;9.242;2022-07-23T01:46:06;6.50;;;6.03;;
7255;SDS011;3669;49.200;9.242;2022-07-23T01:48:33;6.28;;;5.78;;
7255;SDS011;3669;49.200;9.242;2022-07-23T01:51:00;6.50;;;6.00;;
7255;SDS011;3669;49.200;9.242;2022-07-23T01:53:27;6.82;;;6.32;;
7255;SDS011;3669;49.200;9.242;2022-07-23T01:55:57;6.65;;;6.05;;
7255;SDS011;3669;49.200;9.242;2022-07-23T01:58:25;6.90;;;6.40;;
7255;SDS011;3669;49.200;9.242;2022-07-23T02:00:53;6.95;;;6.40;;
7255;SDS011;3669;49.200;9.242;2022-07-23T02:03:20;6.63;;;6.13;;
7255;SDS011;3669;49.200;9.242;2022-07-23T02:05:47;6.90;;;6.30;;
7255;SDS011;3669;49.200;9.242;2022-07-23T02:08:14;6.47;;;5.90;;
7255;SDS011;3669;49.200;9.242;2022-07-23T02:10:41;6.15;;;5.70;;
7255;SDS011;3669;49.200;9.242;2022-07-23T02:13:08;6.28;;;5.78;;
7255;SDS011;3669;49.200;9.242;2022-07-23T02:15:35;6.40;;;5.90;;
7255;SDS011;3669;49.200;9.242;2022-07-23T02:18:03;5.95;;;5.50;;
7255;SDS011;3669;49.200;9.242;2022-07-23T02:20:30;6.70;;;6.20;;
7255;SDS011;3669;49.200;9.242;2022-07-23T02:22:57;6.28;;;5.82;;
7255;SDS011;3669;49.200;9.242;2022-07-23T02:25:24;6.68;;;6.10;;
7255;SDS011;3669;49.200;9.242;2022-07-23T02:27:51;6.35;;;5.85;;
7255;SDS011;3669;49.200;9.242;2022-07-23T02:30:18;6.10;;;5.70;;
7255;SDS011;3669;49.200;9.242;2022-07-23T02:32:46;6.30;;;5.80;;
7255;SDS011;3669;49.200;9.242;2022-07-23T02:35:13;6.80;;;6.30;;
7255;SDS011;3669;49.200;9.242;2022-07-23T02:37:40;6.25;;;5.75;;
7255;SDS011;3669;49.200;9.242;2022-07-23T02:40:07;6.47;;;5.95;;
7255;SDS011;3669;49.200;9.242;2022-07-23T02:42:34;6.68;;;6.18;;
7255;SDS011;3669;49.200;9.242;2022-07-23T02:45:01;6.70;;;6.20;;
7255;SDS011;3669;49.200;9.242;2022-07-23T02:47:28;6.32;;;5.82;;
7255;SDS011;3669;49.200;9.242;2022-07-23T02:49:55;6.38;;;5.88;;
7255;SDS011;3669;49.200;9.242;2022-07-23T02:52:22;6.70;;;6.20;;
7255;SDS011;3669;49.200;9.242;2022-07-23T02:54:49;6.88;;;6.30;;
7255;SDS011;3669;49.200;9.242;2022-07-23T02:57:16;7.07;;;6.47;;
7255;SDS011;3669;49.200;9.242;2022-07-23T02:59:43;6.72;;;6.13;;
7255;SDS011;3669;49.200;9.242;2022-07-23T03:02:10;7.45;;;6.72;;
7255;SDS011;3669;49.200;9.242;2022-07-23T03:04:37;6.82;;;6.30;;
7255;SDS011;3669;49.200;9.242;2022-07-23T03:07:04;7.38;;;6.78;;
7255;SDS011;3669;49.200;9.242;2022-07-23T03:09:31;6.82;;;6.32;;
7255;SDS011;3669;49.200;9.242;2022-07-23T03:11:58;6.95;;;6.38;;
7255;SDS011;3669;49.200;9.242;2022-07-23T03:14:25;7.45;;;6.75;;
7255;SDS011;3669;49.200;9.242;2022-07-23T03:16:53;7.15;;;6.60;;
7255;SDS011;3669;49.200;9.242;2022-07-23T03:19:20;7.03;;;6.53;;
7255;SDS011;3669;49.200;9.242;2022-07-23T03:21:47;7.55;;;6.88;;
7255;SDS011;3669;49.200;9.242;2022-07-23T03:24:14;6.75;;;6.15;;
7255;SDS011;3669;49.200;9.242;2022-07-23T03:26:42;8.43;;;7.50;;
7255;SDS011;3669;49.200;9.242;2022-07-23T03:29:10;9.32;;;8.63;;
7255;SDS011;3669;49.200;9.242;2022-07-23T03:31:37;25.30;;;23.67;;
7255;SDS011;3669;49.200;9.242;2022-07-23T03:34:04;12.90;;;12.05;;
7255;SDS011;3669;49.200;9.242;2022-07-23T03:36:31;16.10;;;14.95;;
7255;SDS011;3669;49.200;9.242;2022-07-23T03:38:58;25.33;;;23.83;;
7255;SDS011;3669;49.200;9.242;2022-07-23T03:41:25;20.45;;;19.30;;
7255;SDS011;3669;49.200;9.242;2022-07-23T03:43:52;19.70;;;18.65;;
7255;SDS011;3669;49.200;9.242;2022-07-23T03:46:18;12.38;;;11.52;;
7255;SDS011;3669;49.200;9.242;2022-07-23T03:48:45;8.07;;;7.45;;
7255;SDS011;3669;49.200;9.242;2022-07-23T03:51:12;7.15;;;6.53;;
7255;SDS011;3669;49.200;9.242;2022-07-23T03:53:39;7.40;;;6.80;;
7255;SDS011;3669;49.200;9.242;2022-07-23T03:56:06;7.35;;;6.75;;
7255;SDS011;3669;49.200;9.242;2022-07-23T03:58:33;8.07;;;7.43;;
7255;SDS011;3669;49.200;9.242;2022-07-23T04:01:00;14.07;;;13.15;;
7255;SDS011;3669;49.200;9.242;2022-07-23T04:03:27;7.60;;;6.95;;
7255;SDS011;3669;49.200;9.242;2022-07-23T04:05:55;7.60;;;7.00;;
7255;SDS011;3669;49.200;9.242;2022-07-23T04:08:22;7.90;;;7.20;;
7255;SDS011;3669;49.200;9.242;2022-07-23T04:10:49;7.20;;;6.63;;
7255;SDS011;3669;49.200;9.242;2022-07-23T04:13:16;7.63;;;7.00;;
7255;SDS011;3669;49.200;9.242;2022-07-23T04:15:43;8.95;;;8.30;;
7255;SDS011;3669;49.200;9.242;2022-07-23T04:18:10;8.35;;;7.60;;
7255;SDS011;3669;49.200;9.242;2022-07-23T04:20:37;7.68;;;6.97;;
7255;SDS011;3669;49.200;9.242;2022-07-23T04:23:04;7.53;;;6.90;;
7255;SDS011;3669;49.200;9.242;2022-07-23T04:25:31;7.47;;;6.80;;
7255;SDS011;3669;49.200;9.242;2022-07-23T04:27:58;7.72;;;6.95;;
7255;SDS011;3669;49.200;9.242;2022-07-23T04:30:25;7.78;;;7.18;;
7255;SDS011;3669;49.200;9.242;2022-07-23T04:32:52;7.93;;;7.18;;
7255;SDS011;3669;49.200;9.242;2022-07-23T04:35:20;7.50;;;6.90;;
7255;SDS011;3669;49.200;9.242;2022-07-23T04:37:47;7.88;;;7.28;;
7255;SDS011;3669;49.200;9.242;2022-07-23T04:40:14;8.30;;;7.50;;
7255;SDS011;3669;49.200;9.242;2022-07-23T04:42:41;8.13;;;7.38;;
7255;SDS011;3669;49.200;9.242;2022-07-23T04:45:08;8.07;;;7.38;;
7255;SDS011;3669;49.200;9.242;2022-07-23T04:47:35;8.00;;;7.40;;
7255;SDS011;3669;49.200;9.242;2022-07-23T04:50:02;8.20;;;7.45;;
7255;SDS011;3669;49.200;9.242;2022-07-23T04:52:29;8.60;;;7.88;;
7255;SDS011;3669;49.200;9.242;2022-07-23T04:54:56;8.90;;;7.82;;
7255;SDS011;3669;49.200;9.242;2022-07-23T04:57:23;8.40;;;7.70;;
7255;SDS011;3669;49.200;9.242;2022-07-23T04:59:50;8.05;;;7.32;;
7255;SDS011;3669;49.200;9.242;2022-07-23T05:02:17;8.18;;;7.45;;
7255;SDS011;3669;49.200;9.242;2022-07-23T05:04:44;7.95;;;7.35;;
7255;SDS011;3669;49.200;9.242;2022-07-23T05:07:11;7.63;;;7.03;;
7255;SDS011;3669;49.200;9.242;2022-07-23T05:09:39;7.47;;;6.78;;
7255;SDS011;3669;49.200;9.242;2022-07-23T05:12:06;7.30;;;6.70;;
7255;SDS011;3669;49.200;9.242;2022-07-23T05:14:33;7.97;;;7.28;;
7255;SDS011;3669;49.200;9.242;2022-07-23T05:17:00;7.60;;;7.00;;
7255;SDS011;3669;49.200;9.242;2022-07-23T05:19:27;7.57;;;6.97;;
7255;SDS011;3669;49.200;9.242;2022-07-23T05:21:54;8.00;;;7.32;;
7255;SDS011;3669;49.200;9.242;2022-07-23T05:24:21;7.85;;;7.15;;
7255;SDS011;3669;49.200;9.242;2022-07-23T05:26:48;8.20;;;7.50;;
7255;SDS011;3669;49.200;9.242;2022-07-23T05:29:15;8.77;;;7.97;;
7255;SDS011;3669;49.200;9.242;2022-07-23T05:31:43;7.70;;;7.10;;
7255;SDS011;3669;49.200;9.242;2022-07-23T05:34:10;7.70;;;7.10;;
7255;SDS011;3669;49.200;9.242;2022-07-23T05:36:37;7.22;;;6.63;;
7255;SDS011;3669;49.200;9.242;2022-07-23T05:39:04;7.75;;;7.15;;
7255;SDS011;3669;49.200;9.242;2022-07-23T05:41:32;7.47;;;6.78;;
7255;SDS011;3669;49.200;9.242;2022-07-23T05:43:58;11.60;;;10.70;;
7255;SDS011;3669;49.200;9.242;2022-07-23T05:46:25;19.00;;;17.95;;
7255;SDS011;3669;49.200;9.242;2022-07-23T05:48:52;19.17;;;18.02;;
7255;SDS011;3669;49.200;9.242;2022-07-23T05:51:23;29.52;;;27.83;;
7255;SDS011;3669;49.200;9.242;2022-07-23T05:53:50;27.08;;;25.63;;
7255;SDS011;3669;49.200;9.242;2022-07-23T05:56:17;28.90;;;27.05;;
7255;SDS011;3669;49.200;9.242;2022-07-23T05:58:44;17.13;;;16.02;;
7255;SDS011;3669;49.200;9.242;2022-07-23T06:01:11;24.48;;;22.95;;
7255;SDS011;3669;49.200;9.242;2022-07-23T06:03:38;10.45;;;9.57;;
7255;SDS011;3669;49.200;9.242;2022-07-23T06:06:05;7.93;;;7.20;;
7255;SDS011;3669;49.200;9.242;2022-07-23T06:08:32;9.10;;;7.90;;
7255;SDS011;3669;49.200;9.242;2022-07-23T06:10:59;7.93;;;7.20;;
7255;SDS011;3669;49.200;9.242;2022-07-23T06:13:27;7.93;;;7.22;;
7255;SDS011;3669;49.200;9.242;2022-07-23T06:15:54;13.43;;;12.38;;
7255;SDS011;3669;49.200;9.242;2022-07-23T06:18:21;7.88;;;7.18;;
7255;SDS011;3669;49.200;9.242;2022-07-23T06:20:48;7.43;;;6.53;;
7255;SDS011;3669;49.200;9.242;2022-07-23T06:23:15;7.82;;;7.13;;
7255;SDS011;3669;49.200;9.242;2022-07-23T06:25:42;7.72;;;7.00;;
7255;SDS011;3669;49.200;9.242;2022-07-23T06:28:09;7.90;;;7.10;;
7255;SDS011;3669;49.200;9.242;2022-07-23T06:30:37;7.40;;;6.70;;
7255;SDS011;3669;49.200;9.242;2022-07-23T06:33:04;7.05;;;6.38;;
7255;SDS011;3669;49.200;9.242;2022-07-23T06:35:31;7.55;;;6.72;;
7255;SDS011;3669;49.200;9.242;2022-07-23T06:37:59;7.32;;;6.65;;
7255;SDS011;3669;49.200;9.242;2022-07-23T06:40:26;7.55;;;6.78;;
7255;SDS011;3669;49.200;9.242;2022-07-23T06:42:53;7.25;;;6.55;;
7255;SDS011;3669;49.200;9.242;2022-07-23T06:45:20;7.50;;;6.80;;
7255;SDS011;3669;49.200;9.242;2022-07-23T06:47:47;7.75;;;6.93;;
7255;SDS011;3669;49.200;9.242;2022-07-23T06:50:15;7.13;;;6.45;;
7255;SDS011;3669;49.200;9.242;2022-07-23T06:52:42;6.90;;;6.30;;
7255;SDS011;3669;49.200;9.242;2022-07-23T06:55:09;7.30;;;6.38;;
7255;SDS011;3669;49.200;9.242;2022-07-23T06:57:36;7.22;;;6.57;;
7255;SDS011;3669;49.200;9.242;2022-07-23T07:00:03;7.75;;;7.05;;
7255;SDS011;3669;49.200;9.242;2022-07-23T07:02:31;7.05;;;6.45;;
7255;SDS011;3669;49.200;9.242;2022-07-23T07:04:58;7.30;;;6.60;;
7255;SDS011;3669;49.200;9.242;2022-07-23T07:07:25;8.07;;;7.38;;
7255;SDS011;3669;49.200;9.242;2022-07-23T07:09:52;7.40;;;6.80;;
7255;SDS011;3669;49.200;9.242;2022-07-23T07:12:19;8.25;;;7.45;;
7255;SDS011;3669;49.200;9.242;2022-07-23T07:14:46;7.38;;;6.78;;
7255;SDS011;3669;49.200;9.242;2022-07-23T07:17:14;7.53;;;6.75;;
7255;SDS011;3669;49.200;9.242;2022-07-23T07:19:41;7.10;;;6.50;;
7255;SDS011;3669;49.200;9.242;2022-07-23T07:22:08;6.97;;;6.38;;
7255;SDS011;3669;49.200;9.242;2022-07-23T07:24:35;7.40;;;6.80;;
7255;SDS011;3669;49.200;9.242;2022-07-23T07:27:02;7.38;;;6.78;;
7255;SDS011;3669;49.200;9.242;2022-07-23T07:29:29;6.70;;;6.18;;
7255;SDS011;3669;49.200;9.242;2022-07-23T07:31:56;7.55;;;6.85;;
7255;SDS011;3669;49.200;9.242;2022-07-23T07:34:23;7.53;;;6.93;;
7255;SDS011;3669;49.200;9.242;2022-07-23T07:36:50;7.32;;;6.72;;
7255;SDS011;3669;49.200;9.242;2022-07-23T07:39:18;7.45;;;6.85;;
7255;SDS011;3669;49.200;9.242;2022-07-23T07:41:45;8.02;;;7.32;;
7255;SDS011;3669;49.200;9.242;2022-07-23T07:44:12;7.32;;;6.72;;
7255;SDS011;3669;49.200;9.242;2022-07-23T07:46:39;7.95;;;7.25;;
7255;SDS011;3669;49.200;9.242;2022-07-23T07:49:06;6.97;;;6.43;;
7255;SDS011;3669;49.200;9.242;2022-07-23T07:51:33;8.02;;;7.35;;
7255;SDS011;3669;49.200;9.242;2022-07-23T07:54:00;7.82;;;7.10;;
7255;SDS011;3669;49.200;9.242;2022-07-23T07:56:27;7.82;;;7.15;;
7255;SDS011;3669;49.200;9.242;2022-07-23T07:58:54;7.60;;;7.00;;
7255;SDS011;3669;49.200;9.242;2022-07-23T08:01:21;7.32;;;6.72;;
7255;SDS011;3669;49.200;9.242;2022-07-23T08:03:48;7.60;;;6.90;;
7255;SDS011;3669;49.200;9.242;2022-07-23T08:06:15;13.38;;;12.38;;
7255;SDS011;3669;49.200;9.242;2022-07-23T08:08:42;17.30;;;16.27;;
7255;SDS011;3669;49.200;9.242;2022-07-23T08:11:09;23.55;;;22.17;;
7255;SDS011;3669;49.200;9.242;2022-07-23T08:13:36;30.75;;;29.08;;
7255;SDS011;3669;49.200;9.242;2022-07-23T08:16:03;32.47;;;30.45;;
7255;SDS011;3669;49.200;9.242;2022-07-23T08:18:30;21.58;;;20.30;;
7255;SDS011;3669;49.200;9.242;2022-07-23T08:20:57;15.43;;;14.38;;
7255;SDS011;3669;49.200;9.242;2022-07-23T08:23:23;11.40;;;10.52;;
7255;SDS011;3669;49.200;9.242;2022-07-23T08:25:50;7.65;;;7.05;;
7255;SDS011;3669;49.200;9.242;2022-07-23T08:28:17;7.47;;;6.78;;
7255;SDS011;3669;49.200;9.242;2022-07-23T08:30:45;7.57;;;6.97;;
7255;SDS011;3669;49.200;9.242;2022-07-23T08:33:13;8.15;;;7.40;;
7255;SDS011;3669;49.200;9.242;2022-07-23T08:35:41;8.27;;;7.57;;
7255;SDS011;3669;49.200;9.242;2022-07-23T08:38:10;8.00;;;7.30;;
7255;SDS011;3669;49.200;9.242;2022-07-23T08:40:39;7.78;;;7.07;;
7255;SDS011;3669;49.200;9.242;2022-07-23T08:43:09;7.53;;;6.93;;
7255;SDS011;3669;49.200;9.242;2022-07-23T08:45:40;7.43;;;6.78;;
7255;SDS011;3669;49.200;9.242;2022-07-23T08:48:08;7.13;;;6.53;;
7255;SDS011;3669;49.200;9.242;2022-07-23T08:50:35;7.70;;;7.10;;
7255;SDS011;3669;49.200;9.242;2022-07-23T08:53:05;7.82;;;7.18;;
7255;SDS011;3669;49.200;9.242;2022-07-23T08:55:33;8.20;;;7.38;;
7255;SDS011;3669;49.200;9.242;2022-07-23T08:58:00;7.47;;;6.88;;
7255;SDS011;3669;49.200;9.242;2022-07-23T09:00:27;7.90;;;7.20;;
7255;SDS011;3669;49.200;9.242;2022-07-23T09:02:55;7.90;;;7.10;;
7255;SDS011;3669;49.200;9.242;2022-07-23T09:05:22;7.68;;;6.93;;
7255;SDS011;3669;49.200;9.242;2022-07-23T09:08:05;8.25;;;7.55;;
7255;SDS011;3669;49.200;9.242;2022-07-23T09:16:07;16.50;;;15.43;;
7255;SDS011;3669;49.200;9.242;2022-07-23T09:21:17;7.72;;;7.10;;
7255;SDS011;3669;49.200;9.242;2022-07-23T09:23:49;7.53;;;6.90;;
7255;SDS011;3669;49.200;9.242;2022-07-23T09:28:54;8.15;;;7.45;;
7255;SDS011;3669;49.200;9.242;2022-07-23T09:31:22;7.93;;;7.22;;
7255;SDS011;3669;49.200;9.242;2022-07-23T09:33:49;7.60;;;6.95;;
7255;SDS011;3669;49.200;9.242;2022-07-23T09:36:26;8.07;;;7.32;;
7255;SDS011;3669;49.200;9.242;2022-07-23T09:38:54;7.35;;;6.75;;
7255;SDS011;3669;49.200;9.242;2022-07-23T09:41:21;8.25;;;7.55;;
7255;SDS011;3669;49.200;9.242;2022-07-23T09:43:54;7.88;;;7.18;;
7255;SDS011;3669;49.200;9.242;2022-07-23T09:46:23;8.45;;;7.65;;
7255;SDS011;3669;49.200;9.242;2022-07-23T09:48:54;7.78;;;7.15;;
7255;SDS011;3669;49.200;9.242;2022-07-23T09:51:24;7.80;;;7.05;;
7255;SDS011;3669;49.200;9.242;2022-07-23T09:54:20;7.97;;;7.30;;
7255;SDS011;3669;49.200;9.242;2022-07-23T09:56:48;8.50;;;7.70;;
7255;SDS011;3669;49.200;9.242;2022-07-23T09:59:16;7.55;;;6.90;;
7255;SDS011;3669;49.200;9.242;2022-07-23T10:01:44;8.10;;;7.40;;
7255;SDS011;3669;49.200;9.242;2022-07-23T10:04:11;8.90;;;8.10;;
7255;SDS011;3669;49.200;9.242;2022-07-23T10:06:39;7.97;;;7.38;;
7255;SDS011;3669;49.200;9.242;2022-07-23T10:09:06;7.82;;;7.22;;
7255;SDS011;3669;49.200;9.242;2022-07-23T10:11:35;8.25;;;7.55;;
7255;SDS011;3669;49.200;9.242;2022-07-23T10:14:02;7.90;;;7.30;;
7255;SDS011;3669;49.200;9.242;2022-07-23T10:16:31;8.10;;;7.30;;
7255;SDS011;3669;49.200;9.242;2022-07-23T10:18:58;8.15;;;7.40;;
7255;SDS011;3669;49.200;9.242;2022-07-23T10:26:58;8.30;;;7.50;;
7255;SDS011;3669;49.200;9.242;2022-07-23T10:42:39;8.35;;;7.65;;
7255;SDS011;3669;49.200;9.242;2022-07-23T10:45:26;8.27;;;7.47;;
7255;SDS011;3669;49.200;9.242;2022-07-23T10:47:54;8.52;;;7.85;;
7255;SDS011;3669;49.200;9.242;2022-07-23T10:58:02;8.02;;;7.38;;
7255;SDS011;3669;49.200;9.242;2022-07-23T11:00:30;18.50;;;17.40;;
7255;SDS011;3669;49.200;9.242;2022-07-23T11:03:04;11.43;;;10.55;;
7255;SDS011;3669;49.200;9.242;2022-07-23T11:05:42;22.83;;;21.48;;
7255;SDS011;3669;49.200;9.242;2022-07-23T11:10:44;7.70;;;7.10;;
7255;SDS011;3669;49.200;9.242;2022-07-23T11:23:58;7.45;;;6.95;;
7255;SDS011;3669;49.200;9.242;2022-07-23T11:31:55;7.97;;;7.28;;
7255;SDS011;3669;49.200;9.242;2022-07-23T11:36:59;8.10;;;7.40;;
7255;SDS011;3669;49.200;9.242;2022-07-23T11:39:27;7.68;;;7.07;;
7255;SDS011;3669;49.200;9.242;2022-07-23T11:41:55;7.72;;;6.93;;
7255;SDS011;3669;49.200;9.242;2022-07-23T11:44:38;7.15;;;6.25;;
7255;SDS011;3669;49.200;9.242;2022-07-23T11:47:10;7.18;;;6.57;;
7255;SDS011;3669;49.200;9.242;2022-07-23T11:49:39;6.40;;;5.90;;
7255;SDS011;3669;49.200;9.242;2022-07-23T11:52:07;6.85;;;6.25;;
7255;SDS011;3669;49.200;9.242;2022-07-23T11:54:36;6.80;;;6.20;;
7255;SDS011;3669;49.200;9.242;2022-07-23T11:57:04;6.53;;;5.93;;
7255;SDS011;3669;49.200;9.242;2022-07-23T11:59:32;6.72;;;6.10;;
7255;SDS011;3669;49.200;9.242;2022-07-23T12:02:01;6.70;;;6.10;;
7255;SDS011;3669;49.200;9.242;2022-07-23T12:04:41;7.28;;;5.63;;
7255;SDS011;3669;49.200;9.242;2022-07-23T12:09:55;6.38;;;5.72;;
7255;SDS011;3669;49.200;9.242;2022-07-23T12:12:22;6.07;;;5.47;;
7255;SDS011;3669;49.200;9.242;2022-07-23T12:14:56;5.53;;;5.13;;
7255;SDS011;3669;49.200;9.242;2022-07-23T12:17:31;6.25;;;5.70;;
7255;SDS011;3669;49.200;9.242;2022-07-23T12:19:59;5.68;;;5.28;;
7255;SDS011;3669;49.200;9.242;2022-07-23T12:22:37;5.80;;;5.32;;
7255;SDS011;3669;49.200;9.242;2022-07-23T12:25:07;6.13;;;5.63;;
7255;SDS011;3669;49.200;9.242;2022-07-23T12:27:35;5.60;;;5.10;;
7255;SDS011;3669;49.200;9.242;2022-07-23T12:30:15;5.38;;;4.97;;
7255;SDS011;3669;49.200;9.242;2022-07-23T12:32:43;5.60;;;5.20;;
7255;SDS011;3669;49.200;9.242;2022-07-23T12:35:11;5.72;;;5.22;;
7255;SDS011;3669;49.200;9.242;2022-07-23T12:37:39;5.93;;;5.53;;
7255;SDS011;3669;49.200;9.242;2022-07-23T12:40:22;5.40;;;5.00;;
7255;SDS011;3669;49.200;9.242;2022-07-23T12:42:51;5.80;;;5.30;;
7255;SDS011;3669;49.200;9.242;2022-07-23T12:45:18;4.75;;;4.40;;
7255;SDS011;3669;49.200;9.242;2022-07-23T12:47:53;5.45;;;5.05;;
7255;SDS011;3669;49.200;9.242;2022-07-23T12:50:37;5.70;;;5.30;;
7255;SDS011;3669;49.200;9.242;2022-07-23T12:53:05;5.72;;;5.32;;
7255;SDS011;3669;49.200;9.242;2022-07-23T12:55:33;5.53;;;5.13;;
7255;SDS011;3669;49.200;9.242;2022-07-23T12:58:05;5.72;;;5.32;;
7255;SDS011;3669;49.200;9.242;2022-07-23T13:00:33;6.50;;;6.00;;
7255;SDS011;3669;49.200;9.242;2022-07-23T13:03:23;5.88;;;5.43;;
7255;SDS011;3669;49.200;9.242;2022-07-23T13:05:50;5.78;;;5.38;;
7255;SDS011;3669;49.200;9.242;2022-07-23T13:08:17;5.93;;;5.45;;
7255;SDS011;3669;49.200;9.242;2022-07-23T13:10:44;5.95;;;5.45;;
7255;SDS011;3669;49.200;9.242;2022-07-23T13:13:17;6.25;;;5.75;;
7255;SDS011;3669;49.200;9.242;2022-07-23T13:15:46;6.32;;;5.75;;
7255;SDS011;3669;49.200;9.242;2022-07-23T13:18:13;6.72;;;6.18;;
7255;SDS011;3669;49.200;9.242;2022-07-23T13:20:43;6.50;;;5.82;;
7255;SDS011;3669;49.200;9.242;2022-07-23T13:23:10;6.97;;;6.43;;
7255;SDS011;3669;49.200;9.242;2022-07-23T13:25:37;6.72;;;6.10;;
7255;SDS011;3669;49.200;9.242;2022-07-23T13:28:04;6.60;;;6.05;;
7255;SDS011;3669;49.200;9.242;2022-07-23T13:30:31;6.43;;;5.93;;
7255;SDS011;3669;49.200;9.242;2022-07-23T13:32:59;6.40;;;5.90;;
7255;SDS011;3669;49.200;9.242;2022-07-23T13:35:26;6.43;;;5.93;;
7255;SDS011;3669;49.200;9.242;2022-07-23T13:37:54;6.75;;;6.18;;
7255;SDS011;3669;49.200;9.242;2022-07-23T13:40:21;6.90;;;6.30;;
7255;SDS011;3669;49.200;9.242;2022-07-23T13:42:48;6.57;;;6.07;;
7255;SDS011;3669;49.200;9.242;2022-07-23T13:45:15;6.88;;;6.32;;
7255;SDS011;3669;49.200;9.242;2022-07-23T13:47:42;6.50;;;6.00;;
7255;SDS011;3669;49.200;9.242;2022-07-23T13:50:09;6.47;;;5.97;;
7255;SDS011;3669;49.200;9.242;2022-07-23T13:52:36;7.00;;;6.47;;
7255;SDS011;3669;49.200;9.242;2022-07-23T13:55:03;6.93;;;6.38;;
7255;SDS011;3669;49.200;9.242;2022-07-23T13:57:31;6.38;;;5.88;;
7255;SDS011;3669;49.200;9.242;2022-07-23T13:59:59;6.68;;;6.18;;
7255;SDS011;3669;49.200;9.242;2022-07-23T14:02:26;6.47;;;5.97;;
7255;SDS011;3669;49.200;9.242;2022-07-23T14:04:53;6.30;;;5.80;;
7255;SDS011;3669;49.200;9.242;2022-07-23T14:07:20;6.40;;;5.97;;
7255;SDS011;3669;49.200;9.242;2022-07-23T14:09:47;6.28;;;5.78;;
7255;SDS011;3669;49.200;9.242;2022-07-23T14:12:14;6.78;;;6.28;;
7255;SDS011;3669;49.200;9.242;2022-07-23T14:14:41;6.88;;;6.28;;
7255;SDS011;3669;49.200;9.242;2022-07-23T14:17:09;7.05;;;6.55;;
7255;SDS011;3669;49.200;9.242;2022-07-23T14:19:36;6.93;;;6.43;;
7255;SDS011;3669;49.200;9.242;2022-07-23T14:22:03;6.70;;;6.28;;
7255;SDS011;3669;49.200;9.242;2022-07-23T14:24:29;16.90;;;16.02;;
7255;SDS011;3669;49.200;9.242;2022-07-23T14:26:56;21.15;;;19.95;;
7255;SDS011;3669;49.200;9.242;2022-07-23T14:29:23;22.08;;;21.02;;
7255;SDS011;3669;49.200;9.242;2022-07-23T14:31:50;15.02;;;14.18;;
7255;SDS011;3669;49.200;9.242;2022-07-23T14:34:17;19.95;;;18.95;;
7255;SDS011;3669;49.200;9.242;2022-07-23T14:36:44;20.02;;;18.92;;
7255;SDS011;3669;49.200;9.242;2022-07-23T14:39:11;13.50;;;12.73;;
7255;SDS011;3669;49.200;9.242;2022-07-23T14:41:38;6.93;;;6.43;;
7255;SDS011;3669;49.200;9.242;2022-07-23T14:44:05;7.47;;;6.88;;
7255;SDS011;3669;49.200;9.242;2022-07-23T14:46:32;6.57;;;6.07;;
7255;SDS011;3669;49.200;9.242;2022-07-23T14:48:59;6.55;;;6.05;;
7255;SDS011;3669;49.200;9.242;2022-07-23T14:51:26;6.55;;;6.05;;
7255;SDS011;3669;49.200;9.242;2022-07-23T14:53:53;6.75;;;6.25;;
7255;SDS011;3669;49.200;9.242;2022-07-23T14:56:20;7.28;;;6.63;;
7255;SDS011;3669;49.200;9.242;2022-07-23T14:58:47;7.00;;;6.50;;
7255;SDS011;3669;49.200;9.242;2022-07-23T15:01:14;12.38;;;11.68;;
7255;SDS011;3669;49.200;9.242;2022-07-23T15:03:41;6.85;;;6.35;;
7255;SDS011;3669;49.200;9.242;2022-07-23T15:06:08;6.82;;;6.20;;
7255;SDS011;3669;49.200;9.242;2022-07-23T15:08:36;6.85;;;6.25;;
7255;SDS011;3669;49.200;9.242;2022-07-23T15:11:02;6.93;;;6.43;;
7255;SDS011;3669;49.200;9.242;2022-07-23T15:13:30;6.93;;;6.43;;
7255;SDS011;3669;49.200;9.242;2022-07-23T15:15:57;8.93;;;8.32;;
7255;SDS011;3669;49.200;9.242;2022-07-23T15:18:24;7.22;;;6.63;;
7255;SDS011;3669;49.200;9.242;2022-07-23T15:20:51;6.60;;;6.10;;
7255;SDS011;3669;49.200;9.242;2022-07-23T15:23:18;7.05;;;6.45;;
7255;SDS011;3669;49.200;9.242;2022-07-23T15:25:45;6.80;;;6.30;;
7255;SDS011;3669;49.200;9.242;2022-07-23T15:28:12;6.82;;;6.22;;
7255;SDS011;3669;49.200;9.242;2022-07-23T15:30:39;7.35;;;6.75;;
7255;SDS011;3669;49.200;9.242;2022-07-23T15:33:06;6.65;;;6.25;;
7255;SDS011;3669;49.200;9.242;2022-07-23T15:35:33;6.57;;;6.07;;
7255;SDS011;3669;49.200;9.242;2022-07-23T15:38:00;6.82;;;6.32;;
7255;SDS011;3669;49.200;9.242;2022-07-23T15:40:27;6.78;;;6.22;;
7255;SDS011;3669;49.200;9.242;2022-07-23T15:42:55;7.47;;;6.75;;
7255;SDS011;3669;49.200;9.242;2022-07-23T15:45:22;7.57;;;6.80;;
7255;SDS011;3669;49.200;9.242;2022-07-23T15:47:49;7.53;;;6.88;;
7255;SDS011;3669;49.200;9.242;2022-07-23T15:50:16;9.10;;;8.30;;
7255;SDS011;3669;49.200;9.242;2022-07-23T15:52:43;8.10;;;7.22;;
7255;SDS011;3669;49.200;9.242;2022-07-23T15:55:10;7.45;;;6.85;;
7255;SDS011;3669;49.200;9.242;2022-07-23T15:57:37;7.28;;;6.65;;
7255;SDS011;3669;49.200;9.242;2022-07-23T16:00:05;8.85;;;6.90;;
7255;SDS011;3669;49.200;9.242;2022-07-23T16:02:33;8.07;;;7.38;;
7255;SDS011;3669;49.200;9.242;2022-07-23T16:05:00;8.10;;;7.40;;
7255;SDS011;3669;49.200;9.242;2022-07-23T16:07:27;8.20;;;7.60;;
7255;SDS011;3669;49.200;9.242;2022-07-23T16:09:54;8.10;;;7.40;;
7255;SDS011;3669;49.200;9.242;2022-07-23T16:12:21;8.00;;;7.35;;
7255;SDS011;3669;49.200;9.242;2022-07-23T16:14:49;7.82;;;7.22;;
7255;SDS011;3669;49.200;9.242;2022-07-23T16:17:16;9.10;;;8.32;;